Time;durP1;ratioP1;P1;durP2;ratioP2;P2;SDS_P1;SDS_P2;PMS_P1;PMS_P2;Temp;Humidity;BMP_temperature;BMP_pressure;BME280_temperature;BME280_humidity;BME280_pressure;Samples;Min_cycle;Max_cycle;Signal;HPM_P1;HPM_P2
2022/08/14 00:01:33;;;;;;;4.70;3.15;;;17.80;61.30;;;;;;4951290;28;20067;-64
2022/08/14 00:04:04;;;;;;;5.03;3.00;;;17.80;60.50;;;;;;4951289;28;20529;-63
2022/08/14 00:06:36;;;;;;;6.18;3.50;;;17.80;61.10;;;;;;4948394;28;20047;-64
2022/08/14 00:09:10;;;;;;;4.38;3.40;;;17.80;60.60;;;;;;4951616;28;20559;-62
2022/08/14 00:11:36;;;;;;;3.55;3.25;;;17.90;60.80;;;;;;4944443;28;20467;-63
2022/08/14 00:14:05;;;;;;;4.15;3.15;;;17.90;60.50;;;;;;4944253;28;20130;-62
2022/08/14 00:16:31;;;;;;;3.28;2.97;;;17.90;60.70;;;;;;4949047;28;20039;-62
2022/08/14 00:19:03;;;;;;;2.90;2.70;;;17.90;60.80;;;;;;4947953;28;20039;-64
2022/08/14 00:21:28;;;;;;;3.10;2.90;;;17.90;60.70;;;;;;4949156;28;20170;-62
2022/08/14 00:23:55;;;;;;;5.15;3.15;;;17.90;60.80;;;;;;4950839;28;20625;-62
2022/08/14 00:26:31;;;;;;;3.55;3.03;;;17.90;60.80;;;;;;4948539;28;20515;-64
2022/08/14 00:28:57;;;;;;;3.55;3.30;;;17.90;60.60;;;;;;4950291;28;20051;-64
2022/08/14 00:31:32;;;;;;;3.85;3.10;;;17.90;60.60;;;;;;4949070;28;20039;-62
2022/08/14 00:33:58;;;;;;;3.28;3.08;;;17.90;60.90;;;;;;4950806;28;20035;-63
2022/08/14 00:36:28;;;;;;;3.80;3.22;;;17.90;60.60;;;;;;4948195;28;20066;-62
2022/08/14 00:38:53;;;;;;;3.28;3.08;;;17.80;60.70;;;;;;4947361;28;20043;-63
2022/08/14 00:41:19;;;;;;;3.55;3.28;;;17.80;60.80;;;;;;4952230;28;20031;-63
2022/08/14 00:43:45;;;;;;;3.45;3.17;;;17.70;61.00;;;;;;4947009;28;20028;-63
2022/08/14 00:46:11;;;;;;;3.90;3.60;;;17.60;61.00;;;;;;4948078;28;20047;-63
2022/08/14 00:48:37;;;;;;;3.40;3.20;;;17.60;61.30;;;;;;4946713;28;20028;-63
2022/08/14 00:51:08;;;;;;;3.50;3.25;;;17.60;61.40;;;;;;4947755;28;20106;-63
2022/08/14 00:53:35;;;;;;;3.78;3.30;;;17.50;61.90;;;;;;4944801;28;20031;-63
2022/08/14 00:56:03;;;;;;;3.47;3.28;;;17.50;61.40;;;;;;4948818;28;20035;-63
2022/08/14 00:58:31;;;;;;;4.20;3.60;;;17.40;61.50;;;;;;4948094;28;20566;-63
2022/08/14 01:01:13;;;;;;;4.82;3.60;;;17.40;61.70;;;;;;4948254;28;20373;-61
2022/08/14 01:03:40;;;;;;;3.20;2.90;;;17.30;62.50;;;;;;4944659;28;20126;-64
2022/08/14 01:06:10;;;;;;;3.83;3.42;;;17.20;61.80;;;;;;4945439;28;20569;-64
2022/08/14 01:08:40;;;;;;;3.60;3.30;;;17.20;62.20;;;;;;4948961;28;20633;-63
2022/08/14 01:11:09;;;;;;;4.63;3.67;;;17.20;62.20;;;;;;4947222;28;20058;-63
2022/08/14 01:13:38;;;;;;;4.72;3.40;;;17.10;62.10;;;;;;4945119;28;20500;-63
2022/08/14 01:16:08;;;;;;;3.85;3.55;;;17.10;62.20;;;;;;4947845;28;20507;-64
2022/08/14 01:21:32;;;;;;;7.25;4.03;;;17.00;62.20;;;;;;4951561;28;20432;-63
2022/08/14 01:24:02;;;;;;;3.60;3.40;;;17.00;62.60;;;;;;4950383;28;20039;-62
2022/08/14 01:26:28;;;;;;;5.00;3.30;;;16.90;62.20;;;;;;4949724;28;20122;-62
2022/08/14 01:28:56;;;;;;;3.45;3.17;;;16.90;62.20;;;;;;4950400;28;20188;-63
2022/08/14 01:31:27;;;;;;;3.58;3.33;;;16.80;62.40;;;;;;4949124;28;20039;-63
2022/08/14 01:33:56;;;;;;;5.18;3.80;;;16.80;63.10;;;;;;4945864;28;20043;-64
2022/08/14 01:36:35;;;;;;;4.75;3.75;;;16.80;62.70;;;;;;4949602;28;20035;-64
2022/08/14 01:39:03;;;;;;;4.15;3.85;;;16.70;63.00;;;;;;4949756;28;20035;-64
2022/08/14 01:41:29;;;;;;;4.18;3.88;;;16.70;63.10;;;;;;4946674;28;20043;-64
2022/08/14 01:44:00;;;;;;;4.53;3.40;;;16.60;63.00;;;;;;4952491;28;20538;-61
2022/08/14 01:46:37;;;;;;;3.72;3.42;;;16.60;63.40;;;;;;4946045;28;20546;-63
2022/08/14 01:49:14;;;;;;;5.70;3.70;;;16.60;64.00;;;;;;4949049;28;20098;-63
2022/08/14 01:51:42;;;;;;;3.63;3.33;;;16.50;63.80;;;;;;4946065;28;20515;-64
2022/08/14 01:54:16;;;;;;;3.00;2.80;;;16.40;63.30;;;;;;4947470;28;20081;-63
2022/08/14 01:56:43;;;;;;;3.30;3.10;;;16.40;63.70;;;;;;4943551;28;20118;-63
2022/08/14 01:59:31;;;;;;;5.10;3.28;;;16.30;63.60;;;;;;4950161;28;20439;-61
2022/08/14 02:01:59;;;;;;;3.72;3.20;;;16.30;64.60;;;;;;4945385;28;20039;-63
2022/08/14 02:04:31;;;;;;;3.95;3.55;;;16.30;63.80;;;;;;4946946;28;20066;-63
2022/08/14 02:06:57;;;;;;;4.07;3.75;;;16.20;64.00;;;;;;4957267;28;20098;-64
2022/08/14 02:09:26;;;;;;;3.65;3.30;;;16.30;64.00;;;;;;4958767;28;20038;-62
2022/08/14 02:11:52;;;;;;;3.70;3.40;;;16.20;64.00;;;;;;4950746;28;20402;-61
2022/08/14 02:14:18;;;;;;;3.67;3.30;;;16.10;64.00;;;;;;4956336;28;20031;-63
2022/08/14 02:16:51;;;;;;;3.47;3.28;;;16.10;64.10;;;;;;4954347;28;20050;-62
2022/08/14 02:19:20;;;;;;;4.82;3.03;;;16.00;64.20;;;;;;4958442;28;20041;-62
2022/08/14 02:21:47;;;;;;;3.63;3.17;;;16.00;64.30;;;;;;4953967;28;20166;-64
2022/08/14 02:24:14;;;;;;;3.38;3.08;;;15.90;64.50;;;;;;4955633;28;20041;-61
2022/08/14 02:26:46;;;;;;;3.50;3.20;;;15.90;64.60;;;;;;4952393;28;20043;-63
2022/08/14 02:29:16;;;;;;;3.28;3.08;;;15.90;64.80;;;;;;4954920;28;20038;-64
2022/08/14 02:31:47;;;;;;;3.78;3.20;;;15.80;64.80;;;;;;4951772;28;20524;-63
2022/08/14 02:34:20;;;;;;;3.70;3.40;;;15.80;65.00;;;;;;4951190;28;20070;-63
2022/08/14 02:36:51;;;;;;;3.40;3.10;;;15.80;65.20;;;;;;4953729;28;20525;-63
2022/08/14 02:39:17;;;;;;;3.55;3.17;;;15.80;65.40;;;;;;4953313;28;20035;-62
2022/08/14 02:41:43;;;;;;;3.17;2.85;;;15.80;65.20;;;;;;4956605;28;20050;-63
2022/08/14 02:44:10;;;;;;;3.30;3.10;;;15.80;65.10;;;;;;4954546;28;20039;-63
2022/08/14 02:46:37;;;;;;;3.28;3.08;;;15.80;65.20;;;;;;4951089;28;22017;-62
2022/08/14 02:49:05;;;;;;;3.58;3.28;;;15.80;65.10;;;;;;4953428;28;20471;-63
2022/08/14 02:51:42;;;;;;;4.50;3.40;;;15.80;65.00;;;;;;4952595;28;20511;-61
2022/08/14 02:54:09;;;;;;;3.83;3.10;;;15.80;65.30;;;;;;4952544;28;20035;-63
2022/08/14 02:56:38;;;;;;;3.72;3.33;;;15.70;65.00;;;;;;4955725;28;20036;-63
2022/08/14 02:59:12;;;;;;;4.22;3.83;;;15.70;65.20;;;;;;4955111;28;20031;-64
2022/08/14 03:01:45;;;;;;;3.60;3.30;;;15.70;65.60;;;;;;4956320;28;20039;-61
2022/08/14 03:04:12;;;;;;;3.78;3.47;;;15.70;65.20;;;;;;4957036;28;20093;-64
2022/08/14 03:07:00;;;;;;;3.53;3.33;;;15.60;66.20;;;;;;4954455;28;20418;-62
2022/08/14 03:09:29;;;;;;;3.20;3.00;;;15.60;66.40;;;;;;4956638;28;20041;-62
2022/08/14 03:12:04;;;;;;;3.22;2.90;;;15.60;65.60;;;;;;4950899;28;20502;-62
2022/08/14 03:14:29;;;;;;;3.20;2.97;;;15.60;65.50;;;;;;4950891;28;20563;-61
2022/08/14 03:16:56;;;;;;;4.18;2.92;;;15.50;65.30;;;;;;4948085;28;20035;-63
2022/08/14 03:19:21;;;;;;;3.72;3.13;;;15.50;65.50;;;;;;4944665;28;20039;-63
2022/08/14 03:21:47;;;;;;;3.10;2.90;;;15.40;65.60;;;;;;4945444;28;20032;-62
2022/08/14 03:24:21;;;;;;;3.35;3.05;;;15.40;65.70;;;;;;4945881;28;20051;-63
2022/08/14 03:26:46;;;;;;;3.38;2.95;;;15.30;65.80;;;;;;4949022;28;20047;-61
2022/08/14 03:29:14;;;;;;;3.22;2.92;;;15.30;65.90;;;;;;4945583;28;20057;-62
2022/08/14 03:31:43;;;;;;;3.38;3.08;;;15.30;66.20;;;;;;4948782;28;20047;-63
2022/08/14 03:34:10;;;;;;;3.90;3.03;;;15.20;66.50;;;;;;4947719;28;20044;-64
2022/08/14 03:36:38;;;;;;;3.33;3.13;;;15.20;66.20;;;;;;4947900;28;20406;-62
2022/08/14 03:39:08;;;;;;;3.47;3.25;;;15.20;66.20;;;;;;4946472;28;20050;-63
2022/08/14 03:41:35;;;;;;;3.05;2.75;;;15.20;66.20;;;;;;4948811;28;20063;-61
2022/08/14 03:44:07;;;;;;;5.88;3.10;;;15.10;66.30;;;;;;4945891;28;20037;-64
2022/08/14 03:46:37;;;;;;;4.80;3.05;;;15.20;66.70;;;;;;4948377;28;20506;-63
2022/08/14 03:49:05;;;;;;;3.60;3.30;;;15.20;66.70;;;;;;4951769;28;20039;-61
2022/08/14 03:51:34;;;;;;;4.07;3.17;;;15.10;66.40;;;;;;4949070;28;20035;-63
2022/08/14 03:54:07;;;;;;;3.60;3.30;;;15.20;66.80;;;;;;4950886;28;20042;-63
2022/08/14 03:56:36;;;;;;;3.72;3.30;;;15.20;66.70;;;;;;4947825;28;20063;-63
2022/08/14 03:59:10;;;;;;;4.00;2.92;;;15.20;66.50;;;;;;4947795;28;20051;-61
2022/08/14 04:01:38;;;;;;;3.50;3.20;;;15.30;67.40;;;;;;4950185;28;20680;-62
2022/08/14 04:04:07;;;;;;;4.03;3.22;;;15.30;66.40;;;;;;4949010;28;20445;-62
2022/08/14 04:06:37;;;;;;;3.60;2.97;;;15.30;66.50;;;;;;4947487;28;20122;-63
2022/08/14 04:09:05;;;;;;;4.28;3.60;;;15.30;66.10;;;;;;4947037;28;20511;-62
2022/08/14 04:11:35;;;;;;;4.63;3.28;;;15.30;66.20;;;;;;4944948;28;20586;-62
2022/08/14 04:14:03;;;;;;;3.65;3.35;;;15.30;66.00;;;;;;4958728;28;20633;-64
2022/08/14 04:16:34;;;;;;;4.10;3.63;;;15.30;66.00;;;;;;4956571;28;20070;-63
2022/08/14 04:19:03;;;;;;;4.00;3.70;;;15.30;66.00;;;;;;4957940;28;20063;-61
2022/08/14 04:21:32;;;;;;;3.72;3.42;;;15.30;67.00;;;;;;4952847;28;20039;-63
2022/08/14 04:23:59;;;;;;;4.72;3.42;;;15.20;65.90;;;;;;4956770;28;20062;-62
2022/08/14 04:26:30;;;;;;;3.58;3.17;;;15.10;65.90;;;;;;4925861;28;20065;-63
2022/08/14 04:29:04;;;;;;;4.43;3.72;;;15.10;66.20;;;;;;4957096;28;20484;-61
2022/08/14 04:31:30;;;;;;;3.80;3.50;;;15.00;66.30;;;;;;4955195;28;20614;-62
2022/08/14 04:33:56;;;;;;;4.05;3.70;;;14.90;66.30;;;;;;4955360;28;20120;-63
2022/08/14 04:36:24;;;;;;;3.63;3.33;;;14.90;66.70;;;;;;4955268;28;20035;-63
2022/08/14 04:44:21;;;;;;;5.27;3.37;;;14.90;66.80;;;;;;4956739;28;20395;-62
2022/08/14 04:49:31;;;;;;;4.22;3.67;;;14.90;66.70;;;;;;4954704;28;20093;-64
2022/08/14 04:51:59;;;;;;;4.18;3.88;;;14.90;66.60;;;;;;4955918;28;20399;-61
2022/08/14 04:54:25;;;;;;;4.00;3.70;;;14.90;66.90;;;;;;4952133;28;20042;-63
2022/08/14 04:56:52;;;;;;;5.07;3.67;;;14.90;67.10;;;;;;4955642;28;20031;-63
2022/08/14 04:59:29;;;;;;;4.57;4.13;;;14.90;67.00;;;;;;4954989;28;20048;-61
2022/08/14 05:01:56;;;;;;;4.72;4.32;;;14.90;67.20;;;;;;4957250;28;20471;-63
2022/08/14 05:04:25;;;;;;;4.55;4.15;;;14.80;67.40;;;;;;4958702;28;20039;-63
2022/08/14 05:06:53;;;;;;;4.63;4.22;;;14.80;68.00;;;;;;4955872;28;20035;-62
2022/08/14 05:09:18;;;;;;;4.75;4.35;;;14.80;68.20;;;;;;4958096;28;20537;-61
2022/08/14 05:11:46;;;;;;;4.80;4.40;;;14.80;68.40;;;;;;4951224;28;20039;-63
2022/08/14 05:14:13;;;;;;;5.18;4.68;;;14.90;68.70;;;;;;4950780;28;20040;-63
2022/08/14 05:16:39;;;;;;;4.35;4.00;;;14.90;68.70;;;;;;4947970;28;20723;-63
2022/08/14 05:19:07;;;;;;;5.15;4.65;;;14.90;68.80;;;;;;4949908;28;20047;-63
2022/08/14 05:21:33;;;;;;;5.13;4.63;;;14.90;68.90;;;;;;4947113;28;20058;-64
2022/08/14 05:24:02;;;;;;;5.00;4.60;;;15.00;69.30;;;;;;4949841;28;20328;-64
2022/08/14 05:26:31;;;;;;;6.05;5.07;;;15.00;69.40;;;;;;4951227;28;20046;-63
2022/08/14 05:28:56;;;;;;;5.57;5.10;;;15.10;69.70;;;;;;4949997;28;20035;-60
2022/08/14 05:31:22;;;;;;;7.30;6.22;;;15.20;69.90;;;;;;4947646;28;20462;-64
2022/08/14 05:33:49;;;;;;;6.18;5.68;;;15.30;69.90;;;;;;4947831;28;20038;-61
2022/08/14 05:36:14;;;;;;;9.75;5.90;;;15.30;69.80;;;;;;4950899;28;20027;-61
2022/08/14 05:38:46;;;;;;;7.57;6.85;;;15.50;69.90;;;;;;4945026;28;20375;-61
2022/08/14 05:41:17;;;;;;;7.20;5.97;;;15.60;71.00;;;;;;4946635;28;20050;-62
2022/08/14 05:43:46;;;;;;;7.70;7.00;;;15.70;70.60;;;;;;4949605;28;20027;-63
2022/08/14 05:46:14;;;;;;;7.15;6.45;;;15.80;70.70;;;;;;4949204;28;20122;-62
2022/08/14 05:51:27;;;;;;;6.93;6.28;;;15.90;70.60;;;;;;4937580;28;20120;-63
2022/08/14 05:53:53;;;;;;;7.78;6.95;;;16.10;70.40;;;;;;4947399;28;20043;-62
2022/08/14 05:56:21;;;;;;;6.95;6.28;;;16.20;70.30;;;;;;4948049;28;20031;-62
2022/08/14 05:58:50;;;;;;;7.28;6.53;;;16.30;70.20;;;;;;4945405;28;20752;-64
2022/08/14 06:01:15;;;;;;;7.75;6.97;;;16.40;70.00;;;;;;4945806;28;20499;-63
2022/08/14 06:03:43;;;;;;;7.97;6.53;;;16.60;69.90;;;;;;4949686;28;20086;-62
2022/08/14 06:06:09;;;;;;;7.30;6.60;;;16.70;69.50;;;;;;4949259;28;20142;-62
2022/08/14 06:08:38;;;;;;;6.25;5.65;;;16.80;69.50;;;;;;4947907;28;20100;-63
2022/08/14 06:11:07;;;;;;;6.93;5.55;;;16.90;69.20;;;;;;4938393;28;20535;-64
2022/08/14 06:13:43;;;;;;;6.47;5.85;;;16.90;69.00;;;;;;4949283;28;20184;-63
2022/08/14 06:16:15;;;;;;;5.90;5.07;;;17.00;68.80;;;;;;4951620;28;20035;-62
2022/08/14 06:18:41;;;;;;;7.68;5.75;;;17.10;68.50;;;;;;4956313;28;20043;-63
2022/08/14 06:21:09;;;;;;;6.40;5.90;;;17.20;68.30;;;;;;4956127;28;20035;-62
2022/08/14 06:23:38;;;;;;;6.90;6.30;;;17.30;68.60;;;;;;4956879;28;20047;-63
2022/08/14 06:26:04;;;;;;;7.63;6.20;;;17.40;69.60;;;;;;4954603;28;20116;-64
2022/08/14 06:28:32;;;;;;;6.45;5.85;;;17.50;68.30;;;;;;4957564;28;20554;-63
2022/08/14 06:30:58;;;;;;;7.03;6.43;;;17.60;68.10;;;;;;4953859;28;20031;-62
2022/08/14 06:33:26;;;;;;;7.13;6.15;;;17.70;68.00;;;;;;4956342;28;20053;-60
2022/08/14 06:35:55;;;;;;;6.90;6.10;;;17.80;67.80;;;;;;4939905;28;20475;-63
2022/08/14 06:38:22;;;;;;;6.85;6.15;;;17.80;67.30;;;;;;4950607;28;20034;-62
2022/08/14 06:40:51;;;;;;;6.00;5.40;;;17.90;67.30;;;;;;4946837;28;20043;-62
2022/08/14 06:43:18;;;;;;;6.55;5.95;;;18.00;67.30;;;;;;4953068;28;20036;-63
2022/08/14 06:45:48;;;;;;;7.85;6.28;;;18.00;67.00;;;;;;4949949;28;20525;-63
2022/08/14 06:48:19;;;;;;;6.95;6.30;;;18.10;67.30;;;;;;4951037;28;20162;-67
2022/08/14 06:50:47;;;;;;;6.72;6.15;;;18.20;66.90;;;;;;4951784;28;20043;-66
2022/08/14 06:53:18;;;;;;;7.03;6.43;;;18.30;66.60;;;;;;4954720;28;20434;-68
2022/08/14 06:55:48;;;;;;;6.57;5.97;;;18.40;66.20;;;;;;4954288;28;20035;-69
2022/08/14 06:58:23;;;;;;;7.13;6.53;;;18.50;66.10;;;;;;4946028;28;20054;-69
2022/08/14 07:06:18;;;;;;;5.77;5.33;;;18.70;66.20;;;;;;4943910;28;20127;-69
2022/08/14 07:08:44;;;;;;;6.40;5.90;;;18.80;65.20;;;;;;4953226;28;20047;-69
2022/08/14 07:11:10;;;;;;;6.07;5.47;;;18.80;64.90;;;;;;4945270;28;20049;-64
2022/08/14 07:13:39;;;;;;;5.90;5.30;;;18.90;64.90;;;;;;4952063;28;20045;-65
2022/08/14 07:16:05;;;;;;;6.47;5.90;;;19.00;64.90;;;;;;4954501;28;20039;-64
2022/08/14 07:18:37;;;;;;;7.90;5.30;;;19.10;64.80;;;;;;4954391;28;20094;-65
2022/08/14 07:21:05;;;;;;;6.15;5.65;;;19.20;64.60;;;;;;4953380;28;20039;-64
2022/08/14 07:23:31;;;;;;;8.45;5.97;;;19.30;64.30;;;;;;4955657;28;20063;-64
2022/08/14 07:26:01;;;;;;;5.95;5.45;;;19.30;64.00;;;;;;4956665;28;20202;-64
2022/08/14 07:28:34;;;;;;;5.93;5.43;;;19.40;63.80;;;;;;4957640;28;20040;-64
2022/08/14 07:31:03;;;;;;;14.25;5.95;;;19.60;63.90;;;;;;4958212;28;20114;-64
2022/08/14 07:33:43;;;;;;;5.97;5.47;;;19.70;63.70;;;;;;4956332;28;22225;-65
2022/08/14 07:36:15;;;;;;;5.75;5.25;;;19.70;63.30;;;;;;4948649;28;20062;-64
2022/08/14 07:38:46;;;;;;;5.60;5.03;;;19.80;63.10;;;;;;4950097;28;20035;-64
2022/08/14 07:41:12;;;;;;;6.97;5.07;;;19.90;62.90;;;;;;4952621;28;20043;-63
2022/08/14 07:43:38;;;;;;;5.10;4.70;;;20.00;62.90;;;;;;4948212;28;20487;-64
2022/08/14 07:46:05;;;;;;;5.57;5.00;;;20.10;62.70;;;;;;4947849;28;20058;-65
2022/08/14 07:48:48;;;;;;;4.32;4.00;;;20.20;62.40;;;;;;4953921;28;20133;-64
2022/08/14 07:51:14;;;;;;;11.20;4.53;;;20.30;62.10;;;;;;4948869;28;21637;-64
2022/08/14 07:53:40;;;;;;;4.28;3.90;;;20.40;61.70;;;;;;4953389;28;20046;-65
2022/08/14 07:56:06;;;;;;;3.90;3.60;;;20.60;61.50;;;;;;4956077;28;20113;-65
2022/08/14 07:58:32;;;;;;;4.57;3.50;;;20.70;61.30;;;;;;4953930;28;20043;-64
2022/08/14 08:00:58;;;;;;;3.88;3.08;;;20.80;60.80;;;;;;4954403;28;20027;-65
2022/08/14 08:03:28;;;;;;;3.97;2.95;;;20.90;60.60;;;;;;4954785;28;20158;-65
2022/08/14 08:05:54;;;;;;;3.08;2.88;;;21.00;60.30;;;;;;4955191;28;20023;-65
2022/08/14 08:08:28;;;;;;;3.60;3.30;;;21.20;60.20;;;;;;4954621;28;20049;-64
2022/08/14 08:10:55;;;;;;;3.13;2.83;;;21.30;59.40;;;;;;4950726;28;20058;-64
2022/08/14 08:13:21;;;;;;;5.50;2.85;;;21.40;59.50;;;;;;4954492;28;20047;-64
2022/08/14 08:15:56;;;;;;;2.58;2.38;;;21.60;59.40;;;;;;4955726;28;20057;-65
2022/08/14 08:18:23;;;;;;;2.60;2.40;;;21.70;59.20;;;;;;4954779;28;20518;-65
2022/08/14 08:20:51;;;;;;;2.70;2.50;;;21.80;58.80;;;;;;4954372;28;20066;-64
2022/08/14 08:23:21;;;;;;;2.80;2.30;;;22.00;58.30;;;;;;4956356;28;20419;-64
2022/08/14 08:25:49;;;;;;;2.58;2.38;;;22.10;58.00;;;;;;4956598;28;20472;-64
2022/08/14 08:28:23;;;;;;;2.22;2.03;;;22.20;57.70;;;;;;4955138;28;20069;-65
2022/08/14 08:30:55;;;;;;;2.40;2.17;;;22.40;57.40;;;;;;4954901;28;20841;-65
2022/08/14 08:33:22;;;;;;;3.42;2.40;;;22.50;57.40;;;;;;4954423;28;20458;-65
2022/08/14 08:35:49;;;;;;;2.20;2.10;;;22.70;57.40;;;;;;4952522;28;20035;-65
2022/08/14 08:38:24;;;;;;;2.60;2.40;;;22.80;56.90;;;;;;4955111;28;20046;-65
2022/08/14 08:40:57;;;;;;;2.00;1.90;;;22.90;56.50;;;;;;4957026;28;20118;-65
2022/08/14 08:43:34;;;;;;;2.10;2.00;;;23.10;56.40;;;;;;4956996;28;20039;-64
2022/08/14 08:46:04;;;;;;;2.47;1.77;;;23.20;55.40;;;;;;4952955;28;20518;-64
2022/08/14 08:48:43;;;;;;;2.03;1.92;;;23.40;55.00;;;;;;4956680;28;20196;-65
2022/08/14 08:51:20;;;;;;;1.98;1.88;;;23.50;54.40;;;;;;4955824;28;20471;-65
2022/08/14 08:54:14;;;;;;;2.25;2.00;;;23.60;54.70;;;;;;4956257;28;20056;-63
2022/08/14 08:56:53;;;;;;;1.90;1.80;;;23.80;54.00;;;;;;4955994;28;20075;-64
2022/08/14 08:59:27;;;;;;;3.70;1.80;;;23.90;53.90;;;;;;4953926;28;20133;-65
2022/08/14 09:01:57;;;;;;;1.90;1.80;;;24.00;53.60;;;;;;4953635;28;20031;-65
2022/08/14 09:04:25;;;;;;;2.00;1.90;;;24.10;53.70;;;;;;4956336;28;20039;-65
2022/08/14 09:06:59;;;;;;;2.00;1.90;;;24.20;53.60;;;;;;4955442;28;20034;-64
2022/08/14 09:09:30;;;;;;;1.67;1.58;;;24.40;53.20;;;;;;4955126;28;20035;-64
2022/08/14 09:12:00;;;;;;;1.80;1.70;;;24.50;52.50;;;;;;4948785;28;20068;-64
2022/08/14 09:14:38;;;;;;;1.85;1.75;;;24.60;52.10;;;;;;4952214;28;20039;-65
2022/08/14 09:17:06;;;;;;;1.60;1.50;;;24.70;51.40;;;;;;4953808;28;20549;-65
2022/08/14 09:19:38;;;;;;;1.73;1.63;;;24.90;52.10;;;;;;4951102;28;20032;-65
2022/08/14 09:22:07;;;;;;;1.65;1.55;;;25.00;51.60;;;;;;4952761;28;20213;-64
2022/08/14 09:24:35;;;;;;;1.65;1.52;;;25.10;50.80;;;;;;4953745;28;20042;-64
2022/08/14 09:27:04;;;;;;;1.70;1.60;;;25.30;51.00;;;;;;4955058;28;20035;-64
2022/08/14 09:29:29;;;;;;;2.47;1.98;;;25.40;50.80;;;;;;4955024;28;20040;-64
2022/08/14 09:32:01;;;;;;;1.83;1.67;;;25.50;50.70;;;;;;4951416;28;20054;-65
2022/08/14 09:35:08;;;;;;;1.92;1.52;;;25.60;49.60;;;;;;4953071;28;20519;-65
2022/08/14 09:37:56;;;;;;;1.40;1.30;;;25.80;49.30;;;;;;4950126;28;20553;-65
2022/08/14 09:40:47;;;;;;;1.80;1.70;;;25.90;49.20;;;;;;4947571;28;20122;-64
2022/08/14 09:43:38;;;;;;;2.78;1.95;;;26.10;49.00;;;;;;4951380;28;20037;-63
2022/08/14 09:46:09;;;;;;;1.60;1.50;;;26.20;48.10;;;;;;4951275;28;20118;-64
2022/08/14 09:48:44;;;;;;;2.58;1.80;;;26.30;47.80;;;;;;4944135;28;20079;-64
2022/08/14 09:51:29;;;;;;;2.47;1.52;;;26.40;48.00;;;;;;4945297;28;20031;-64
2022/08/14 09:54:34;;;;;;;1.92;1.83;;;26.50;47.80;;;;;;4949988;28;20050;-65
2022/08/14 09:57:13;;;;;;;8.23;1.73;;;26.60;47.70;;;;;;4936451;28;20959;-64
2022/08/14 09:59:48;;;;;;;3.13;1.73;;;26.80;47.80;;;;;;4951800;28;20039;-65
2022/08/14 10:02:31;;;;;;;2.78;1.63;;;26.80;47.30;;;;;;4947299;28;20455;-64
2022/08/14 10:05:10;;;;;;;1.50;1.40;;;27.00;47.50;;;;;;4949978;28;20039;-64
2022/08/14 10:07:51;;;;;;;2.60;1.67;;;27.10;47.00;;;;;;4949967;28;20039;-64
2022/08/14 10:10:56;;;;;;;1.48;1.35;;;27.20;46.70;;;;;;4946957;28;20034;-64
2022/08/14 10:13:25;;;;;;;1.80;1.60;;;27.30;46.70;;;;;;4943779;28;20043;-64
2022/08/14 10:15:58;;;;;;;1.77;1.50;;;27.40;46.60;;;;;;4955858;28;20167;-64
2022/08/14 10:18:26;;;;;;;1.40;1.40;;;27.50;46.40;;;;;;4953065;28;20470;-64
2022/08/14 10:20:57;;;;;;;2.88;1.50;;;27.60;46.50;;;;;;4954366;28;20035;-64
2022/08/14 10:23:26;;;;;;;1.60;1.50;;;27.70;45.90;;;;;;4956991;28;20043;-65
2022/08/14 10:25:57;;;;;;;1.15;1.15;;;27.80;45.70;;;;;;4958485;28;20067;-65
2022/08/14 10:28:23;;;;;;;1.20;1.20;;;27.80;45.00;;;;;;4950031;28;20047;-64
2022/08/14 10:30:53;;;;;;;1.38;1.27;;;27.90;45.00;;;;;;4951150;28;20043;-65
2022/08/14 10:33:28;;;;;;;1.40;1.20;;;27.90;44.90;;;;;;4949896;28;20497;-65
2022/08/14 10:36:01;;;;;;;1.20;1.10;;;28.00;43.70;;;;;;4950693;28;20503;-65
2022/08/14 10:38:31;;;;;;;2.25;1.40;;;28.10;44.70;;;;;;4950688;28;20045;-65
2022/08/14 10:41:11;;;;;;;1.50;1.20;;;28.10;44.10;;;;;;4949650;28;20039;-66
2022/08/14 10:43:38;;;;;;;1.40;1.30;;;28.20;43.60;;;;;;4948732;28;20039;-65
2022/08/14 10:46:17;;;;;;;1.10;1.10;;;28.20;44.10;;;;;;4951249;28;20032;-65
2022/08/14 10:49:01;;;;;;;1.20;1.20;;;28.30;42.90;;;;;;4947247;28;20716;-64
2022/08/14 10:51:29;;;;;;;1.10;1.10;;;28.40;43.20;;;;;;4944459;28;20039;-65
2022/08/14 10:54:08;;;;;;;1.00;1.00;;;28.40;43.30;;;;;;4947543;28;20521;-65
2022/08/14 10:56:39;;;;;;;1.77;1.15;;;28.40;42.60;;;;;;4933759;28;20435;-65
2022/08/14 10:59:07;;;;;;;1.25;1.10;;;28.50;42.90;;;;;;4948236;28;20035;-64
2022/08/14 11:01:34;;;;;;;1.20;1.13;;;28.60;42.40;;;;;;4950790;28;20114;-64
2022/08/14 11:04:01;;;;;;;1.35;1.10;;;28.60;42.00;;;;;;4948827;28;20042;-65
2022/08/14 11:06:29;;;;;;;1.17;1.10;;;28.70;41.90;;;;;;4945206;28;20042;-64
2022/08/14 11:08:57;;;;;;;1.27;1.17;;;28.70;41.70;;;;;;4949775;28;20088;-65
2022/08/14 11:11:25;;;;;;;1.20;1.10;;;28.80;41.20;;;;;;4942003;28;20035;-65
2022/08/14 11:13:56;;;;;;;0.85;0.80;;;28.80;41.80;;;;;;4946465;28;20035;-64
2022/08/14 11:16:23;;;;;;;1.33;1.25;;;28.90;41.10;;;;;;4944047;28;20048;-65
2022/08/14 11:18:49;;;;;;;0.95;0.95;;;28.90;41.30;;;;;;4947977;28;20410;-64
2022/08/14 11:21:19;;;;;;;1.00;1.00;;;29.00;40.70;;;;;;4952533;28;20031;-64
2022/08/14 11:23:46;;;;;;;1.17;1.10;;;29.00;40.40;;;;;;4957738;28;20039;-64
2022/08/14 11:26:13;;;;;;;1.23;1.00;;;29.10;39.90;;;;;;4958591;28;20038;-64
2022/08/14 11:28:44;;;;;;;1.10;1.00;;;29.10;39.80;;;;;;4957250;28;20046;-64
2022/08/14 11:31:13;;;;;;;1.30;1.10;;;29.10;39.60;;;;;;4956861;28;20030;-64
2022/08/14 11:33:41;;;;;;;1.17;1.08;;;29.10;39.50;;;;;;4955959;28;20050;-64
2022/08/14 11:36:09;;;;;;;1.15;1.13;;;29.10;39.60;;;;;;4957007;28;20035;-65
2022/08/14 11:38:40;;;;;;;2.28;1.08;;;29.20;39.90;;;;;;4956195;28;20491;-64
2022/08/14 11:41:10;;;;;;;1.40;1.30;;;29.20;39.60;;;;;;4957305;28;20042;-64
2022/08/14 11:43:44;;;;;;;1.48;1.05;;;29.20;39.40;;;;;;4956521;28;20183;-64
2022/08/14 11:46:16;;;;;;;1.23;0.95;;;29.30;38.80;;;;;;4951993;28;20042;-64
2022/08/14 11:48:46;;;;;;;2.28;1.00;;;29.30;39.40;;;;;;4952363;28;20031;-64
2022/08/14 11:51:19;;;;;;;0.90;0.90;;;29.30;39.00;;;;;;4952258;28;20063;-65
2022/08/14 11:54:09;;;;;;;1.00;1.00;;;29.40;39.10;;;;;;4954446;28;20062;-64
2022/08/14 11:56:38;;;;;;;0.95;0.95;;;29.40;38.40;;;;;;4950483;28;20086;-64
2022/08/14 11:59:07;;;;;;;1.00;1.00;;;29.50;39.00;;;;;;4954726;28;20034;-65
2022/08/14 12:01:35;;;;;;;1.15;1.05;;;29.50;38.50;;;;;;4949322;28;20414;-64
2022/08/14 12:04:16;;;;;;;1.10;1.10;;;29.60;37.70;;;;;;4953071;28;20130;-64
2022/08/14 12:06:55;;;;;;;2.35;1.00;;;29.50;38.10;;;;;;4947740;28;20071;-64
2022/08/14 12:09:34;;;;;;;1.00;1.00;;;29.60;38.00;;;;;;4953725;28;20043;-64
2022/08/14 12:12:11;;;;;;;1.40;1.30;;;29.60;38.20;;;;;;4950590;28;20050;-64
2022/08/14 12:15:11;;;;;;;1.35;1.10;;;29.60;38.50;;;;;;4948518;28;20039;-64
2022/08/14 12:17:50;;;;;;;1.17;1.05;;;29.70;37.80;;;;;;4956271;28;20047;-65
2022/08/14 12:20:28;;;;;;;1.23;1.10;;;29.70;37.70;;;;;;4956737;28;20098;-64
2022/08/14 12:22:54;;;;;;;1.30;1.20;;;29.80;37.50;;;;;;4959345;28;21980;-64
2022/08/14 12:25:26;;;;;;;1.00;1.00;;;29.80;37.30;;;;;;4955567;28;20562;-65
2022/08/14 12:27:56;;;;;;;1.55;1.17;;;29.80;36.00;;;;;;4953479;28;20455;-64
2022/08/14 12:30:41;;;;;;;1.90;1.15;;;29.80;36.60;;;;;;4956957;28;20097;-64
2022/08/14 12:33:25;;;;;;;;;;;29.80;36.20;;;;;;4957118;28;20110;-64
2022/08/14 12:35:59;;;;;;;1.17;1.08;;;29.80;36.70;;;;;;4957292;28;20381;-63
2022/08/14 12:38:45;;;;;;;1.00;1.00;;;29.80;36.50;;;;;;4956623;28;20046;-64
2022/08/14 12:41:16;;;;;;;1.08;0.95;;;29.70;36.10;;;;;;4954589;28;20042;-65
2022/08/14 12:43:50;;;;;;;1.48;1.13;;;29.70;37.20;;;;;;4957929;28;20521;-64
2022/08/14 12:46:32;;;;;;;0.98;0.98;;;29.70;36.80;;;;;;4957534;28;20047;-65
2022/08/14 12:49:17;;;;;;;0.93;0.93;;;29.70;36.90;;;;;;4954546;28;20122;-65
2022/08/14 12:52:00;;;;;;;1.35;1.25;;;29.80;37.40;;;;;;4956619;28;20039;-64
2022/08/14 12:54:32;;;;;;;1.30;1.20;;;29.90;37.60;;;;;;4952082;28;20046;-64
2022/08/14 12:57:24;;;;;;;2.03;1.48;;;29.90;37.40;;;;;;4956595;28;20035;-64
2022/08/14 12:59:51;;;;;;;0.93;0.90;;;29.90;35.30;;;;;;4955148;28;20082;-65
2022/08/14 13:02:28;;;;;;;1.20;1.10;;;29.80;36.30;;;;;;4955679;28;20035;-64
2022/08/14 13:04:55;;;;;;;1.10;1.10;;;30.00;35.40;;;;;;4938088;28;20038;-64
2022/08/14 13:07:36;;;;;;;1.23;1.10;;;30.00;36.30;;;;;;4957019;28;20553;-64
2022/08/14 13:10:13;;;;;;;1.45;1.00;;;30.00;35.50;;;;;;4955312;28;20454;-65
2022/08/14 13:12:39;;;;;;;1.13;1.00;;;30.10;35.70;;;;;;4949136;28;20043;-64
2022/08/14 13:15:07;;;;;;;1.02;1.00;;;30.10;35.80;;;;;;4954567;28;20106;-63
2022/08/14 13:17:39;;;;;;;1.10;1.10;;;30.10;35.70;;;;;;4955341;28;20057;-65
2022/08/14 13:20:05;;;;;;;1.10;1.00;;;30.20;35.50;;;;;;4955080;28;20041;-65
2022/08/14 13:22:43;;;;;;;1.10;0.98;;;30.20;35.80;;;;;;4956824;28;20113;-64
2022/08/14 13:25:17;;;;;;;2.15;0.93;;;30.30;35.90;;;;;;4955939;28;20038;-64
2022/08/14 13:27:51;;;;;;;1.20;1.10;;;30.30;35.40;;;;;;4954796;28;20085;-64